Time;durP1;ratioP1;P1;durP2;ratioP2;P2;SDS_P1;SDS_P2;PMS_P1;PMS_P2;Temp;Humidity;BMP_temperature;BMP_pressure;BME280_temperature;BME280_humidity;BME280_pressure;Samples;Min_cycle;Max_cycle;Signal;HPM_P1;HPM_P2
2021/07/10 00:00:57;;;;;;;15.10;12.17;;;;;24.10;100853.00;;;;2057831;28;20225;-66
2021/07/10 00:01:58;;;;;;;14.37;12.93;;;;;24.10;100838.00;;;;2058296;28;20966;-66
2021/07/10 00:02:58;;;;;;;14.17;12.77;;;;;24.10;100849.00;;;;2057730;28;20222;-66
2021/07/10 00:03:58;;;;;;;13.90;12.70;;;;;24.10;100846.00;;;;2059255;28;20211;-66
2021/07/10 00:04:59;;;;;;;12.60;11.50;;;;;24.10;100852.00;;;;2058508;28;20219;-66
2021/07/10 00:05:59;;;;;;;13.60;12.43;;;;;24.10;100846.00;;;;2058413;28;20215;-66
2021/07/10 00:07:00;;;;;;;14.40;12.97;;;;;24.10;100846.00;;;;2058403;28;20218;-66
2021/07/10 00:08:00;;;;;;;13.93;12.67;;;;;24.10;100839.00;;;;2049531;28;20212;-66
2021/07/10 00:09:01;;;;;;;14.20;12.90;;;;;24.10;100836.00;;;;2053466;28;20242;-66
2021/07/10 00:10:03;;;;;;;13.13;11.83;;;;;24.10;100835.00;;;;2057805;28;20215;-66
2021/07/10 00:11:04;;;;;;;13.27;12.07;;;;;24.10;100845.00;;;;2056846;28;20270;-66
2021/07/10 00:12:05;;;;;;;12.80;11.70;;;;;24.10;100843.00;;;;2059234;28;20234;-66
2021/07/10 00:13:05;;;;;;;13.07;11.87;;;;;24.10;100847.00;;;;2054299;28;20619;-66
2021/07/10 00:14:06;;;;;;;12.97;11.77;;;;;24.10;100851.00;;;;2058734;28;20211;-65
2021/07/10 00:15:08;;;;;;;12.53;11.33;;;;;24.10;100844.00;;;;2058664;28;20645;-65
2021/07/10 00:16:10;;;;;;;13.38;12.07;;;;;24.10;100846.00;;;;2058699;28;20307;-65
2021/07/10 00:17:10;;;;;;;13.10;11.88;;;;;24.10;100846.00;;;;2061093;28;20246;-65
2021/07/10 00:18:10;;;;;;;12.00;10.90;;;;;24.10;100844.00;;;;2060268;28;20226;-65
2021/07/10 00:19:11;;;;;;;11.97;10.90;;;;;24.10;100843.00;;;;2059408;28;20313;-65
2021/07/10 00:20:11;;;;;;;12.47;11.27;;;;;24.10;100844.00;;;;2057481;28;20227;-65
2021/07/10 00:21:11;;;;;;;13.20;12.00;;;;;24.10;100844.00;;;;2058032;28;20234;-65
2021/07/10 00:22:12;;;;;;;11.90;10.87;;;;;24.10;100838.00;;;;2058477;28;20208;-65
2021/07/10 00:23:12;;;;;;;12.10;11.00;;;;;24.10;100843.00;;;;2058784;28;20234;-65
2021/07/10 00:24:12;;;;;;;12.47;11.27;;;;;24.10;100838.00;;;;2058672;28;20214;-65
2021/07/10 00:25:15;;;;;;;12.70;11.50;;;;;24.10;100827.00;;;;2057954;28;20218;-65
2021/07/10 00:26:15;;;;;;;12.45;11.30;;;;;24.10;100820.00;;;;2058089;28;20215;-65
2021/07/10 00:27:16;;;;;;;12.07;10.87;;;;;24.10;100834.00;;;;2057716;28;20215;-65
2021/07/10 00:28:16;;;;;;;11.67;10.57;;;;;24.10;100826.00;;;;2057555;28;20212;-65
2021/07/10 00:29:16;;;;;;;11.37;10.37;;;;;24.10;100823.00;;;;2057937;28;20690;-65
2021/07/10 00:30:17;;;;;;;11.57;10.57;;;;;24.10;100827.00;;;;2057772;28;20586;-65
2021/07/10 00:31:18;;;;;;;10.52;9.63;;;;;24.10;100821.00;;;;2060329;28;20203;-65
2021/07/10 00:32:18;;;;;;;12.23;11.10;;;;;24.10;100817.00;;;;2057851;28;20571;-65
2021/07/10 00:33:18;;;;;;;10.70;9.60;;;;;24.10;100819.00;;;;2061443;28;20602;-65
2021/07/10 00:34:19;;;;;;;10.67;9.70;;;;;24.10;100814.00;;;;2058893;28;20218;-65
2021/07/10 00:35:19;;;;;;;11.10;10.10;;;;;24.10;100817.00;;;;2058786;28;20207;-65
2021/07/10 00:36:20;;;;;;;11.50;10.40;;;;;24.10;100815.00;;;;2058507;28;20800;-66
2021/07/10 00:37:20;;;;;;;10.87;9.87;;;;;24.10;100811.00;;;;2058719;28;20258;-66
2021/07/10 00:38:20;;;;;;;10.60;9.60;;;;;24.10;100814.00;;;;2049868;28;20219;-66
2021/07/10 00:39:21;;;;;;;10.83;9.93;;;;;24.10;100811.00;;;;2050271;28;20232;-66
2021/07/10 00:40:21;;;;;;;10.67;9.67;;;;;24.10;100819.00;;;;2058430;28;20589;-66
2021/07/10 00:41:22;;;;;;;9.90;9.00;;;;;24.10;100814.00;;;;2059068;28;20724;-66
2021/07/10 00:42:22;;;;;;;10.33;9.43;;;;;24.10;100812.00;;;;2049305;28;20587;-66
2021/07/10 00:43:23;;;;;;;10.07;9.17;;;;;24.10;100807.00;;;;2057669;28;20447;-66
2021/07/10 00:44:23;;;;;;;11.07;9.77;;;;;24.10;100812.00;;;;2058221;28;20323;-66
2021/07/10 00:45:23;;;;;;;10.40;9.50;;;;;24.10;100815.00;;;;2055902;28;20215;-66
2021/07/10 00:46:24;;;;;;;11.13;9.73;;;;;24.10;100814.00;;;;2059964;28;20218;-66
2021/07/10 00:47:24;;;;;;;11.20;9.50;;;;;24.10;100813.00;;;;2059867;28;20215;-66
2021/07/10 00:48:24;;;;;;;10.70;9.77;;;;;24.10;100812.00;;;;2062395;28;20294;-66
2021/07/10 00:49:25;;;;;;;10.57;9.50;;;;;24.10;100807.00;;;;2059430;28;20929;-66
2021/07/10 00:50:25;;;;;;;9.60;8.80;;;;;24.10;100808.00;;;;2057372;28;20726;-66
2021/07/10 00:51:25;;;;;;;10.27;9.33;;;;;24.10;100803.00;;;;2057852;28;20637;-66
2021/07/10 00:52:26;;;;;;;10.60;9.53;;;;;24.10;100803.00;;;;2055077;28;20231;-66
2021/07/10 00:53:26;;;;;;;9.93;9.03;;;;;24.10;100805.00;;;;2058476;28;20714;-66
2021/07/10 00:54:27;;;;;;;10.30;9.40;;;;;24.10;100800.00;;;;2058584;28;20222;-66
2021/07/10 00:55:27;;;;;;;9.60;8.70;;;;;24.10;100797.00;;;;2058893;28;20216;-66
2021/07/10 00:56:27;;;;;;;9.60;8.80;;;;;24.10;100797.00;;;;2058947;28;20278;-66
2021/07/10 00:57:28;;;;;;;9.37;8.60;;;;;24.10;100798.00;;;;2058874;28;20857;-66
2021/07/10 00:58:28;;;;;;;10.07;9.20;;;;;24.10;100798.00;;;;2059085;28;20288;-66
2021/07/10 00:59:29;;;;;;;8.67;7.87;;;;;24.10;100801.00;;;;2058488;28;20318;-66
2021/07/10 01:00:29;;;;;;;9.93;9.03;;;;;24.10;100797.00;;;;2057319;28;20230;-66
2021/07/10 01:01:29;;;;;;;8.93;8.10;;;;;24.10;100797.00;;;;2057620;28;20226;-66
2021/07/10 01:02:30;;;;;;;9.87;8.97;;;;;24.10;100795.00;;;;2060473;28;20223;-66
2021/07/10 01:03:31;;;;;;;9.50;8.60;;;;;24.10;100801.00;;;;2049773;28;20306;-66
2021/07/10 01:04:32;;;;;;;9.05;8.25;;;;;24.10;100801.00;;;;2049593;28;20290;-66
2021/07/10 01:05:35;;;;;;;8.17;7.47;;;;;24.10;100798.00;;;;2060131;28;20820;-66
2021/07/10 01:06:39;;;;;;;10.00;8.13;;;;;24.10;100795.00;;;;2059037;28;20312;-66
2021/07/10 01:07:39;;;;;;;9.10;8.30;;;;;24.00;100792.00;;;;2059153;28;20219;-66
2021/07/10 01:08:41;;;;;;;9.47;8.67;;;;;24.00;100804.00;;;;2059185;28;20599;-66
2021/07/10 01:09:42;;;;;;;8.95;8.25;;;;;24.10;100796.00;;;;2058735;28;20226;-66
2021/07/10 01:10:42;;;;;;;8.93;8.13;;;;;24.10;100793.00;;;;2058294;28;20815;-66
2021/07/10 01:11:43;;;;;;;8.30;7.60;;;;;24.10;100797.00;;;;2049555;28;20721;-66
2021/07/10 01:12:44;;;;;;;8.73;8.00;;;;;24.10;100795.00;;;;2049628;28;20702;-66
2021/07/10 01:13:44;;;;;;;9.40;8.60;;;;;24.10;100794.00;;;;2041649;29;20275;-66
2021/07/10 01:14:45;;;;;;;9.07;8.30;;;;;24.10;100796.00;;;;2041768;29;20224;-66
2021/07/10 01:15:45;;;;;;;9.27;8.57;;;;;24.10;100798.00;;;;2058353;28;20299;-66
2021/07/10 01:16:46;;;;;;;9.20;8.40;;;;;24.00;100792.00;;;;2061684;28;20221;-66
2021/07/10 01:17:46;;;;;;;8.80;8.10;;;;;24.00;100783.00;;;;2061167;28;20215;-66
2021/07/10 01:18:46;;;;;;;8.80;8.10;;;;;24.10;100797.00;;;;2060103;28;20230;-66
2021/07/10 01:20:00;;;;;;;8.20;7.50;;;;;24.10;100800.00;;;;2058298;28;20202;-66
2021/07/10 01:21:01;;;;;;;8.38;7.68;;;;;24.10;100797.00;;;;2057327;28;20706;-66
2021/07/10 01:22:01;;;;;;;8.43;7.73;;;;;24.00;100799.00;;;;2057957;28;20226;-66
2021/07/10 01:23:01;;;;;;;8.43;7.73;;;;;24.00;100796.00;;;;2058922;28;20332;-66
2021/07/10 01:24:02;;;;;;;8.40;7.70;;;;;24.00;100790.00;;;;2058844;28;20559;-66
2021/07/10 01:25:03;;;;;;;8.60;7.70;;;;;24.00;100791.00;;;;2051682;28;20211;-66
2021/07/10 01:26:03;;;;;;;8.95;8.00;;;;;24.00;100794.00;;;;2051783;28;20603;-66
2021/07/10 01:27:04;;;;;;;8.50;7.80;;;;;24.00;100782.00;;;;2060225;28;20227;-66
2021/07/10 01:28:04;;;;;;;8.10;7.40;;;;;24.00;100782.00;;;;2060004;28;20220;-66
2021/07/10 01:29:05;;;;;;;8.87;7.80;;;;;24.00;100779.00;;;;2060249;28;20222;-66
2021/07/10 01:30:10;;;;;;;7.83;7.27;;;;;24.00;100776.00;;;;2060318;28;20313;-66
2021/07/10 01:31:10;;;;;;;8.32;7.57;;;;;24.00;100783.00;;;;2058864;28;20295;-66
2021/07/10 01:32:12;;;;;;;8.63;7.87;;;;;24.00;100779.00;;;;2050973;28;20211;-66
2021/07/10 01:33:13;;;;;;;8.23;7.53;;;;;24.00;100770.00;;;;2043027;29;20291;-66
2021/07/10 01:34:13;;;;;;;8.67;7.87;;;;;24.00;100782.00;;;;2051160;28;20212;-66
2021/07/10 01:35:14;;;;;;;8.80;8.10;;;;;24.00;100780.00;;;;2057314;28;20682;-66
2021/07/10 01:36:14;;;;;;;8.67;7.97;;;;;24.00;100779.00;;;;2060172;28;20236;-66
2021/07/10 01:37:15;;;;;;;8.47;7.70;;;;;24.00;100777.00;;;;2052269;28;20227;-66
2021/07/10 01:38:15;;;;;;;8.10;7.40;;;;;24.00;100772.00;;;;2050835;28;20212;-66
2021/07/10 01:39:15;;;;;;;8.63;7.47;;;;;24.00;100775.00;;;;2060031;28;20732;-66
2021/07/10 01:40:17;;;;;;;7.67;7.07;;;;;24.00;100781.00;;;;2059495;28;20216;-66
2021/07/10 01:41:18;;;;;;;8.30;7.43;;;;;24.00;100785.00;;;;2060724;28;20216;-66
2021/07/10 01:42:19;;;;;;;7.83;7.23;;;;;24.00;100779.00;;;;2059664;28;20632;-66
2021/07/10 01:43:19;;;;;;;8.82;8.13;;;;;24.00;100782.00;;;;2060259;28;20623;-66
2021/07/10 01:44:21;;;;;;;7.70;7.10;;;;;24.00;100783.00;;;;2062394;28;20221;-66
2021/07/10 01:45:21;;;;;;;8.13;7.50;;;;;24.00;100781.00;;;;2062332;28;20230;-66
2021/07/10 01:46:21;;;;;;;9.27;8.30;;;;;24.00;100784.00;;;;2061145;28;20298;-66
2021/07/10 01:47:22;;;;;;;8.50;7.70;;;;;24.00;100784.00;;;;2062151;28;20816;-67
2021/07/10 01:48:22;;;;;;;7.93;7.30;;;;;24.00;100782.00;;;;2051594;28;20691;-66
2021/07/10 01:49:23;;;;;;;7.67;7.07;;;;;24.00;100776.00;;;;2060024;28;20689;-66
2021/07/10 01:50:23;;;;;;;8.33;7.50;;;;;24.00;100786.00;;;;2049019;28;20238;-66
2021/07/10 01:51:23;;;;;;;8.33;7.73;;;;;24.00;100782.00;;;;2058914;28;20660;-66
2021/07/10 01:52:24;;;;;;;7.93;7.23;;;;;24.00;100774.00;;;;2060722;28;20217;-66
2021/07/10 01:53:24;;;;;;;8.67;7.77;;;;;24.00;100773.00;;;;2060082;28;20208;-66
2021/07/10 01:54:24;;;;;;;7.97;7.17;;;;;24.00;100763.00;;;;2060176;28;20269;-67
2021/07/10 01:55:25;;;;;;;8.40;7.60;;;;;24.00;100772.00;;;;2051298;28;20219;-66
2021/07/10 01:56:25;;;;;;;7.90;7.20;;;;;24.00;100774.00;;;;2053813;28;20219;-66
2021/07/10 01:57:25;;;;;;;8.03;7.37;;;;;24.00;100779.00;;;;2061477;28;20725;-66
2021/07/10 01:58:26;;;;;;;10.03;7.67;;;;;24.00;100776.00;;;;2060196;28;20720;-66
2021/07/10 01:59:26;;;;;;;8.00;7.40;;;;;24.00;100768.00;;;;2059735;28;20789;-66
2021/07/10 02:00:28;;;;;;;7.57;6.97;;;;;24.00;100766.00;;;;2058789;28;20554;-66
2021/07/10 02:01:29;;;;;;;7.50;6.80;;;;;24.00;100765.00;;;;2059179;28;20577;-66
2021/07/10 02:02:29;;;;;;;7.80;7.10;;;;;24.00;100769.00;;;;2059064;28;20216;-66
2021/07/10 02:03:29;;;;;;;8.23;7.23;;;;;24.00;100755.00;;;;2059322;28;20314;-66
2021/07/10 02:04:31;;;;;;;7.60;7.00;;;;;24.00;100759.00;;;;2058328;28;20298;-66
2021/07/10 02:05:31;;;;;;;8.00;7.30;;;;;24.00;100759.00;;;;2058266;28;20293;-66
2021/07/10 02:06:31;;;;;;;7.63;6.97;;;;;24.00;100761.00;;;;2059037;28;20270;-66
2021/07/10 02:07:31;;;;;;;7.40;6.80;;;;;24.00;100753.00;;;;2050544;28;20223;-66
2021/07/10 02:08:32;;;;;;;7.50;6.90;;;;;24.00;100757.00;;;;2051383;28;20220;-66
2021/07/10 02:09:32;;;;;;;9.43;7.50;;;;;24.00;100749.00;;;;2059889;28;20302;-66
2021/07/10 02:10:33;;;;;;;7.27;6.63;;;;;24.00;100756.00;;;;2059343;28;20220;-65
2021/07/10 02:11:33;;;;;;;7.73;7.03;;;;;24.00;100755.00;;;;2059946;28;20604;-66
2021/07/10 02:12:33;;;;;;;7.80;7.20;;;;;24.00;100755.00;;;;2059103;28;20245;-66
2021/07/10 02:13:35;;;;;;;7.30;6.70;;;;;24.00;100749.00;;;;2059253;28;20215;-66
2021/07/10 02:14:36;;;;;;;8.25;7.10;;;;;24.00;100745.00;;;;2061812;28;20222;-66
2021/07/10 02:15:36;;;;;;;8.17;7.50;;;;;24.00;100750.00;;;;2059882;28;20293;-66
2021/07/10 02:16:37;;;;;;;7.17;6.57;;;;;24.00;100738.00;;;;2059863;28;20581;-66
2021/07/10 02:17:37;;;;;;;7.33;6.73;;;;;24.00;100738.00;;;;2059921;28;20226;-66
2021/07/10 02:18:37;;;;;;;7.47;6.87;;;;;24.00;100739.00;;;;2050279;28;20574;-66
2021/07/10 02:19:38;;;;;;;7.47;6.87;;;;;24.00;100736.00;;;;2051381;28;20706;-66
2021/07/10 02:20:38;;;;;;;7.83;7.23;;;;;24.00;100742.00;;;;2059034;28;20222;-66
2021/07/10 02:21:38;;;;;;;7.70;6.90;;;;;24.00;100743.00;;;;2059189;28;20211;-66
2021/07/10 02:22:39;;;;;;;7.97;7.27;;;;;24.00;100736.00;;;;2059196;28;21033;-66
2021/07/10 02:23:39;;;;;;;6.53;6.03;;;;;24.00;100737.00;;;;2058424;28;20410;-66
2021/07/10 02:24:40;;;;;;;8.33;7.63;;;;;24.00;100741.00;;;;2059711;28;20223;-66
2021/07/10 02:25:40;;;;;;;7.20;6.60;;;;;24.00;100745.00;;;;2058971;28;20301;-66
2021/07/10 02:26:40;;;;;;;8.30;7.60;;;;;24.00;100746.00;;;;2059015;28;20234;-66
2021/07/10 02:27:41;;;;;;;7.53;6.93;;;;;24.00;100740.00;;;;2059182;28;20226;-65
2021/07/10 02:28:41;;;;;;;7.43;6.83;;;;;24.00;100744.00;;;;2059056;28;20234;-66
2021/07/10 02:29:42;;;;;;;7.37;6.77;;;;;23.90;100741.00;;;;2059555;28;20285;-66
2021/07/10 02:30:42;;;;;;;7.40;6.80;;;;;23.90;100744.00;;;;2059325;28;20229;-66
2021/07/10 02:31:42;;;;;;;7.40;6.90;;;;;23.90;100744.00;;;;2059807;28;20298;-66
2021/07/10 02:32:43;;;;;;;7.03;6.33;;;;;23.90;100742.00;;;;2058750;28;20265;-66
2021/07/10 02:33:44;;;;;;;8.07;7.38;;;;;23.90;100733.00;;;;2051326;28;20302;-66
2021/07/10 02:34:44;;;;;;;7.23;6.63;;;;;23.90;100739.00;;;;2059686;28;20212;-66
2021/07/10 02:35:44;;;;;;;7.00;6.50;;;;;23.90;100735.00;;;;2059703;28;20682;-66
2021/07/10 02:36:45;;;;;;;7.77;7.20;;;;;23.90;100741.00;;;;2059004;28;20642;-66
2021/07/10 02:37:46;;;;;;;7.50;6.80;;;;;24.00;100741.00;;;;2059743;28;20223;-66
2021/07/10 02:38:47;;;;;;;7.40;6.80;;;;;23.90;100744.00;;;;2059134;28;20214;-66
2021/07/10 02:39:47;;;;;;;7.47;6.87;;;;;23.90;100740.00;;;;2058930;28;20230;-66
2021/07/10 02:40:47;;;;;;;7.93;7.33;;;;;23.90;100731.00;;;;2061578;28;20221;-66
2021/07/10 02:41:48;;;;;;;6.87;6.37;;;;;23.90;100731.00;;;;2059600;28;20222;-65
2021/07/10 02:42:48;;;;;;;7.00;6.50;;;;;23.90;100730.00;;;;2059185;28;20222;-66
2021/07/10 02:43:49;;;;;;;7.47;6.77;;;;;23.90;100741.00;;;;2059242;28;20218;-66
2021/07/10 02:44:49;;;;;;;7.70;7.00;;;;;23.90;100735.00;;;;2063446;28;20211;-66
2021/07/10 02:45:50;;;;;;;7.33;6.83;;;;;23.90;100731.00;;;;2061478;28;20635;-66
2021/07/10 02:46:50;;;;;;;7.47;6.87;;;;;23.90;100734.00;;;;2059814;28;20297;-66
2021/07/10 02:47:50;;;;;;;7.30;6.70;;;;;23.90;100733.00;;;;2059117;28;20222;-66
2021/07/10 02:48:51;;;;;;;7.67;7.07;;;;;23.90;100732.00;;;;2058987;28;20585;-66
2021/07/10 02:49:51;;;;;;;7.07;6.47;;;;;23.90;100730.00;;;;2058531;28;20269;-66
2021/07/10 02:50:51;;;;;;;8.60;7.80;;;;;23.90;100738.00;;;;2058818;28;20226;-66
2021/07/10 02:51:52;;;;;;;7.13;6.53;;;;;23.90;100730.00;;;;2058863;28;20813;-66
2021/07/10 02:52:55;;;;;;;7.50;6.90;;;;;23.90;100725.00;;;;2058984;28;20760;-66
2021/07/10 02:53:56;;;;;;;7.63;6.93;;;;;23.90;100732.00;;;;2058603;28;20226;-66
2021/07/10 02:54:56;;;;;;;7.13;6.50;;;;;23.90;100734.00;;;;2059486;28;20226;-66
2021/07/10 02:55:56;;;;;;;6.90;6.40;;;;;23.90;100730.00;;;;2059886;28;20203;-66
2021/07/10 02:56:57;;;;;;;7.30;6.70;;;;;23.90;100731.00;;;;2057549;28;20212;-66
2021/07/10 02:57:57;;;;;;;7.47;6.77;;;;;23.90;100739.00;;;;2058262;28;20302;-66
2021/07/10 02:58:58;;;;;;;7.17;6.57;;;;;23.90;100734.00;;;;2059693;28;20214;-66
2021/07/10 02:59:59;;;;;;;7.20;6.60;;;;;23.90;100729.00;;;;2059593;28;20274;-66
2021/07/10 03:00:59;;;;;;;6.18;5.68;;;;;23.90;100734.00;;;;2059233;28;20208;-66
2021/07/10 03:02:00;;;;;;;7.33;6.73;;;;;23.90;100726.00;;;;2059497;28;20265;-65
2021/07/10 03:03:00;;;;;;;6.83;6.23;;;;;23.90;100730.00;;;;2059625;28;20582;-65
2021/07/10 03:04:00;;;;;;;6.90;6.40;;;;;23.90;100735.00;;;;2058764;28;21005;-65
2021/07/10 03:05:01;;;;;;;7.20;6.60;;;;;23.90;100730.00;;;;2058948;28;20218;-66
2021/07/10 03:06:01;;;;;;;7.07;6.57;;;;;23.90;100726.00;;;;2058823;28;20290;-66
2021/07/10 03:07:01;;;;;;;7.60;6.90;;;;;23.90;100727.00;;;;2058875;28;20326;-66
2021/07/10 03:08:02;;;;;;;6.47;5.90;;;;;23.90;100724.00;;;;2059314;28;20216;-66
2021/07/10 03:09:03;;;;;;;7.60;6.88;;;;;23.90;100725.00;;;;2059614;28;20699;-66
2021/07/10 03:10:05;;;;;;;7.10;6.50;;;;;23.90;100720.00;;;;2059630;28;20208;-66
2021/07/10 03:11:06;;;;;;;6.95;6.45;;;;;23.90;100716.00;;;;2058675;28;20211;-66
2021/07/10 03:12:07;;;;;;;7.32;6.63;;;;;23.80;100715.00;;;;2058689;28;20223;-66
2021/07/10 03:13:07;;;;;;;6.73;6.23;;;;;23.90;100721.00;;;;2058678;28;20286;-66
2021/07/10 03:14:08;;;;;;;7.63;7.00;;;;;23.90;100721.00;;;;2058796;28;20701;-66
2021/07/10 03:15:08;;;;;;;7.17;6.57;;;;;23.90;100722.00;;;;2059314;28;20203;-66
2021/07/10 03:16:09;;;;;;;6.50;6.00;;;;;23.90;100716.00;;;;2062882;28;20203;-66
2021/07/10 03:17:09;;;;;;;6.97;6.47;;;;;23.90;100728.00;;;;2061446;28;20257;-66
2021/07/10 03:18:09;;;;;;;7.17;6.20;;;;;23.90;100730.00;;;;2061024;28;20200;-66
2021/07/10 03:19:10;;;;;;;7.30;6.70;;;;;23.80;100723.00;;;;2058120;28;20705;-65
2021/07/10 03:20:11;;;;;;;6.67;6.17;;;;;23.70;100727.00;;;;2059038;28;20702;-65
2021/07/10 03:21:11;;;;;;;6.25;5.75;;;;;23.80;100725.00;;;;2058487;28;20203;-66
2021/07/10 03:22:11;;;;;;;6.97;6.43;;;;;23.80;100722.00;;;;2058722;28;20207;-66
2021/07/10 03:23:12;;;;;;;6.77;6.23;;;;;23.80;100725.00;;;;2058750;28;20212;-66
2021/07/10 03:24:12;;;;;;;6.97;6.37;;;;;23.80;100732.00;;;;2058674;28;20214;-66
2021/07/10 03:25:13;;;;;;;6.60;6.10;;;;;23.80;100726.00;;;;2058558;28;20219;-66
2021/07/10 03:26:13;;;;;;;6.30;5.80;;;;;23.90;100725.00;;;;2058697;28;20574;-66
2021/07/10 03:27:14;;;;;;;6.90;6.40;;;;;23.80;100718.00;;;;2058728;28;20972;-66
2021/07/10 03:28:14;;;;;;;7.00;6.50;;;;;23.80;100731.00;;;;2058802;28;20694;-66
2021/07/10 03:29:14;;;;;;;7.27;6.67;;;;;23.90;100728.00;;;;2058558;28;20199;-65
2021/07/10 03:30:17;;;;;;;6.87;6.30;;;;;23.80;100722.00;;;;2058033;28;20258;-66
2021/07/10 03:31:17;;;;;;;6.22;5.82;;;;;23.80;100718.00;;;;2058785;28;20203;-66
2021/07/10 03:32:18;;;;;;;7.23;6.67;;;;;23.90;100724.00;;;;2058535;28;20327;-66
2021/07/10 03:33:22;;;;;;;6.80;6.30;;;;;23.90;100719.00;;;;2058580;28;20226;-66
2021/07/10 03:34:22;;;;;;;8.00;5.85;;;;;23.80;100717.00;;;;2055530;28;20225;-66
2021/07/10 03:35:22;;;;;;;6.67;6.17;;;;;23.80;100719.00;;;;2055067;28;20215;-65
2021/07/10 03:36:26;;;;;;;7.33;6.67;;;;;23.80;100709.00;;;;2058706;28;20222;-66
2021/07/10 03:37:26;;;;;;;6.75;6.25;;;;;23.80;100718.00;;;;2061385;28;20215;-66
2021/07/10 03:38:26;;;;;;;6.50;6.00;;;;;23.80;100709.00;;;;2058535;28;20226;-66
2021/07/10 03:39:27;;;;;;;6.47;5.97;;;;;23.80;100715.00;;;;2049391;28;20789;-65
2021/07/10 03:40:27;;;;;;;6.50;6.00;;;;;23.80;100713.00;;;;2049749;28;20227;-66
2021/07/10 03:41:28;;;;;;;7.00;6.40;;;;;23.80;100711.00;;;;2058745;28;20211;-66
2021/07/10 03:42:28;;;;;;;6.60;6.10;;;;;23.80;100710.00;;;;2058558;28;20227;-66
2021/07/10 03:43:29;;;;;;;6.20;5.70;;;;;23.80;100719.00;;;;2058484;28;20223;-66
2021/07/10 03:44:29;;;;;;;6.10;5.70;;;;;23.80;100711.00;;;;2062308;28;20219;-66
2021/07/10 03:45:29;;;;;;;7.17;6.60;;;;;23.80;100703.00;;;;2060847;28;20224;-66
2021/07/10 03:46:30;;;;;;;6.40;5.90;;;;;23.80;100705.00;;;;2059968;28;20278;-66
2021/07/10 03:47:31;;;;;;;6.83;6.37;;;;;23.80;100707.00;;;;2059169;28;20222;-66
2021/07/10 03:48:31;;;;;;;7.07;6.47;;;;;23.80;100707.00;;;;2059328;28;20218;-66
2021/07/10 03:49:32;;;;;;;6.47;5.97;;;;;23.80;100708.00;;;;2059255;28;20223;-66
2021/07/10 03:50:32;;;;;;;6.43;5.93;;;;;23.80;100702.00;;;;2058852;28;20223;-66
2021/07/10 03:51:32;;;;;;;7.23;6.53;;;;;23.80;100706.00;;;;2060437;28;20305;-66
2021/07/10 03:52:33;;;;;;;6.80;6.20;;;;;23.80;100712.00;;;;2058223;28;20237;-66
2021/07/10 03:53:33;;;;;;;7.43;6.80;;;;;23.80;100698.00;;;;2058823;28;20230;-66
2021/07/10 03:54:34;;;;;;;7.23;6.67;;;;;23.80;100695.00;;;;2058498;28;20223;-66
2021/07/10 03:55:34;;;;;;;6.70;6.20;;;;;23.80;100691.00;;;;2058745;28;20234;-66
2021/07/10 03:56:34;;;;;;;6.00;5.60;;;;;23.80;100697.00;;;;2057713;28;20602;-66
2021/07/10 03:57:35;;;;;;;7.40;6.20;;;;;23.80;100699.00;;;;2059100;28;20246;-66
2021/07/10 03:58:35;;;;;;;7.40;6.80;;;;;23.80;100698.00;;;;2058653;28;20262;-66
2021/07/10 03:59:35;;;;;;;6.67;6.17;;;;;23.80;100699.00;;;;2059154;28;20729;-66
2021/07/10 04:00:36;;;;;;;6.37;5.87;;;;;23.80;100698.00;;;;2055990;28;20212;-66
2021/07/10 04:01:36;;;;;;;7.23;6.63;;;;;23.80;100692.00;;;;2058572;28;20230;-66
2021/07/10 04:02:37;;;;;;;6.83;6.33;;;;;23.80;100693.00;;;;2058452;28;20218;-67
2021/07/10 04:03:37;;;;;;;6.60;6.10;;;;;23.80;100700.00;;;;2058517;28;20218;-66
2021/07/10 04:04:37;;;;;;;6.30;5.80;;;;;23.80;100696.00;;;;2058464;28;20305;-66
2021/07/10 04:05:38;;;;;;;6.53;6.03;;;;;23.90;100694.00;;;;2058446;28;20219;-66
2021/07/10 04:06:38;;;;;;;6.97;6.27;;;;;23.80;100704.00;;;;2058671;28;20212;-66
2021/07/10 04:07:39;;;;;;;19.87;7.17;;;;;23.90;100695.00;;;;2058836;28;20694;-66
2021/07/10 04:08:39;;;;;;;9.53;6.63;;;;;23.80;100696.00;;;;2059331;28;20222;-66
2021/07/10 04:09:40;;;;;;;9.20;6.00;;;;;23.80;100696.00;;;;2058892;28;20238;-66
2021/07/10 04:10:40;;;;;;;8.00;6.20;;;;;23.80;100698.00;;;;2058029;28;20214;-66
2021/07/10 04:11:40;;;;;;;6.57;6.03;;;;;23.80;100692.00;;;;2058300;28;20261;-66
2021/07/10 04:12:41;;;;;;;6.20;5.70;;;;;23.80;100688.00;;;;2057279;28;20249;-66
2021/07/10 04:13:41;;;;;;;5.73;5.33;;;;;23.80;100689.00;;;;2061272;28;20222;-66
2021/07/10 04:14:42;;;;;;;6.83;6.33;;;;;23.80;100688.00;;;;2062248;28;20569;-66
2021/07/10 04:15:42;;;;;;;6.70;6.10;;;;;23.70;100688.00;;;;2059140;28;20221;-66
2021/07/10 04:16:42;;;;;;;8.50;6.80;;;;;23.70;100687.00;;;;2061447;28;20218;-66
2021/07/10 04:17:43;;;;;;;5.67;5.00;;;;;23.70;100680.00;;;;2060336;28;20239;-66
2021/07/10 04:18:43;;;;;;;6.87;6.27;;;;;23.80;100687.00;;;;2058172;28;20274;-66
2021/07/10 04:19:46;;;;;;;6.77;6.17;;;;;23.80;100681.00;;;;2058254;28;20219;-66
2021/07/10 04:20:46;;;;;;;6.43;5.82;;;;;23.80;100686.00;;;;2049429;28;20212;-66
2021/07/10 04:21:46;;;;;;;6.77;6.10;;;;;23.90;100684.00;;;;2052491;28;20570;-66
2021/07/10 04:22:47;;;;;;;6.23;5.73;;;;;23.90;100686.00;;;;2059148;28;20240;-66
2021/07/10 04:23:47;;;;;;;6.70;5.90;;;;;23.90;100679.00;;;;2058007;28;20207;-66
2021/07/10 04:24:48;;;;;;;6.47;5.97;;;;;23.90;100690.00;;;;2058284;28;20554;-66
2021/07/10 04:25:48;;;;;;;7.17;6.57;;;;;23.90;100680.00;;;;2058437;28;20703;-66
2021/07/10 04:26:49;;;;;;;6.57;6.07;;;;;23.90;100644.00;;;;2049318;28;20251;-66
2021/07/10 04:27:49;;;;;;;6.23;5.63;;;;;23.90;100686.00;;;;2050117;28;20211;-66
2021/07/10 04:28:49;;;;;;;6.03;5.50;;;;;24.00;100684.00;;;;2058341;28;20230;-65
2021/07/10 04:29:50;;;;;;;6.87;5.60;;;;;24.00;100687.00;;;;2058331;28;20221;-65
2021/07/10 04:30:51;;;;;;;6.10;5.60;;;;;24.00;100684.00;;;;2056999;28;20246;-66
2021/07/10 04:31:51;;;;;;;6.43;5.93;;;;;23.90;100679.00;;;;2057989;28;20212;-66
2021/07/10 04:32:51;;;;;;;7.20;6.50;;;;;23.90;100680.00;;;;2058254;28;20208;-66
2021/07/10 04:33:52;;;;;;;6.30;5.67;;;;;23.90;100682.00;;;;2058532;28;20226;-66
2021/07/10 04:34:52;;;;;;;6.23;5.63;;;;;23.90;100687.00;;;;2058575;28;20207;-66
2021/07/10 04:35:52;;;;;;;6.00;5.50;;;;;23.90;100686.00;;;;2058429;28;20215;-66
2021/07/10 04:36:53;;;;;;;6.47;5.87;;;;;23.90;100681.00;;;;2058682;28;21068;-66
2021/07/10 04:37:53;;;;;;;6.23;5.73;;;;;23.90;100680.00;;;;2058545;28;20216;-66
2021/07/10 04:38:54;;;;;;;6.17;5.70;;;;;23.90;100686.00;;;;2056489;28;20218;-66
2021/07/10 04:39:54;;;;;;;6.30;5.80;;;;;23.90;100697.00;;;;2057694;28;20717;-66
2021/07/10 04:40:54;;;;;;;5.60;5.10;;;;;23.80;100684.00;;;;2057091;28;20279;-66
2021/07/10 04:41:55;;;;;;;6.27;5.50;;;;;23.80;100688.00;;;;2057856;28;20215;-66
2021/07/10 04:42:55;;;;;;;6.20;5.70;;;;;23.90;100685.00;;;;2057767;28;20257;-66
2021/07/10 04:43:55;;;;;;;6.37;5.87;;;;;23.80;100684.00;;;;2061058;28;20223;-66
2021/07/10 04:44:56;;;;;;;6.57;5.83;;;;;23.80;100692.00;;;;2061520;28;20215;-66
2021/07/10 04:45:56;;;;;;;5.97;5.30;;;;;23.90;100686.00;;;;2059112;28;20222;-67
2021/07/10 04:46:57;;;;;;;6.37;5.77;;;;;23.80;100684.00;;;;2057679;28;20226;-67
2021/07/10 04:47:57;;;;;;;5.87;5.37;;;;;23.90;100684.00;;;;2048241;28;20698;-66
2021/07/10 04:48:58;;;;;;;5.93;5.43;;;;;23.90;100692.00;;;;2056385;28;20486;-66
2021/07/10 04:49:58;;;;;;;7.10;6.50;;;;;23.90;100689.00;;;;2057110;28;20222;-66
2021/07/10 04:50:59;;;;;;;5.90;5.50;;;;;23.90;100688.00;;;;2056540;28;20219;-66
2021/07/10 04:52:01;;;;;;;7.32;5.72;;;;;23.90;100686.00;;;;2056038;28;20577;-66
2021/07/10 04:53:01;;;;;;;6.68;6.10;;;;;23.90;100690.00;;;;2058197;28;20796;-66
2021/07/10 04:54:02;;;;;;;6.27;5.77;;;;;23.90;100694.00;;;;2057630;28;20218;-66
2021/07/10 04:55:03;;;;;;;6.93;6.10;;;;;23.90;100692.00;;;;2057368;28;20215;-66
2021/07/10 04:56:04;;;;;;;7.05;6.45;;;;;23.90;100694.00;;;;2057536;28;20230;-66
2021/07/10 04:57:05;;;;;;;7.27;6.67;;;;;23.90;100692.00;;;;2057033;28;20225;-67
2021/07/10 04:58:05;;;;;;;11.23;10.23;;;;;23.90;100696.00;;;;2057716;28;20215;-66
2021/07/10 04:59:05;;;;;;;9.90;9.00;;;;;23.90;100694.00;;;;2057096;28;20779;-66